sensor_id;sensor_type;location;lat;lon;timestamp;P1;durP1;ratioP1;P2;durP2;ratioP2
18166;SDS011;9208;42.688;23.404;2022-09-09T00:01:43;5.97;;;5.47;;
18166;SDS011;9208;42.688;23.404;2022-09-09T00:04:26;6.00;;;5.50;;
18166;SDS011;9208;42.688;23.404;2022-09-09T00:09:29;6.33;;;5.83;;
18166;SDS011;9208;42.688;23.404;2022-09-09T00:12:10;6.37;;;5.47;;
18166;SDS011;9208;42.688;23.404;2022-09-09T00:14:43;7.67;;;5.50;;
18166;SDS011;9208;42.688;23.404;2022-09-09T00:17:20;6.07;;;5.57;;
18166;SDS011;9208;42.688;23.404;2022-09-09T00:19:50;6.60;;;5.97;;
18166;SDS011;9208;42.688;23.404;2022-09-09T00:22:27;6.30;;;5.80;;
18166;SDS011;9208;42.688;23.404;2022-09-09T00:24:56;7.03;;;6.10;;
18166;SDS011;9208;42.688;23.404;2022-09-09T00:27:41;6.60;;;5.90;;
18166;SDS011;9208;42.688;23.404;2022-09-09T00:32:39;8.40;;;6.77;;
18166;SDS011;9208;42.688;23.404;2022-09-09T00:35:18;7.20;;;6.50;;
18166;SDS011;9208;42.688;23.404;2022-09-09T00:37:50;6.60;;;6.00;;
18166;SDS011;9208;42.688;23.404;2022-09-09T00:40:41;7.67;;;6.97;;
18166;SDS011;9208;42.688;23.404;2022-09-09T00:43:30;7.00;;;6.40;;
18166;SDS011;9208;42.688;23.404;2022-09-09T00:54:08;7.53;;;6.70;;
18166;SDS011;9208;42.688;23.404;2022-09-09T00:56:46;6.90;;;6.33;;
18166;SDS011;9208;42.688;23.404;2022-09-09T01:02:07;6.77;;;6.27;;
18166;SDS011;9208;42.688;23.404;2022-09-09T01:04:43;6.93;;;6.23;;
18166;SDS011;9208;42.688;23.404;2022-09-09T01:07:16;7.50;;;6.70;;
18166;SDS011;9208;42.688;23.404;2022-09-09T01:09:50;6.50;;;6.00;;
18166;SDS011;9208;42.688;23.404;2022-09-09T01:12:26;7.87;;;5.90;;
18166;SDS011;9208;42.688;23.404;2022-09-09T01:15:09;6.93;;;6.33;;
18166;SDS011;9208;42.688;23.404;2022-09-09T01:28:36;8.27;;;6.27;;
18166;SDS011;9208;42.688;23.404;2022-09-09T01:31:04;6.77;;;6.10;;
18166;SDS011;9208;42.688;23.404;2022-09-09T01:33:32;6.33;;;5.73;;
18166;SDS011;9208;42.688;23.404;2022-09-09T01:36:02;6.33;;;5.70;;
18166;SDS011;9208;42.688;23.404;2022-09-09T01:38:32;6.60;;;5.73;;
18166;SDS011;9208;42.688;23.404;2022-09-09T01:41:01;6.33;;;5.73;;
18166;SDS011;9208;42.688;23.404;2022-09-09T01:43:26;6.50;;;5.90;;
18166;SDS011;9208;42.688;23.404;2022-09-09T01:45:54;6.83;;;5.87;;
18166;SDS011;9208;42.688;23.404;2022-09-09T01:48:23;6.07;;;5.67;;
18166;SDS011;9208;42.688;23.404;2022-09-09T01:50:50;7.70;;;5.97;;
18166;SDS011;9208;42.688;23.404;2022-09-09T01:53:17;6.67;;;6.07;;
18166;SDS011;9208;42.688;23.404;2022-09-09T01:56:04;7.07;;;6.37;;
18166;SDS011;9208;42.688;23.404;2022-09-09T02:04:42;6.50;;;6.00;;
18166;SDS011;9208;42.688;23.404;2022-09-09T02:07:11;6.33;;;5.73;;
18166;SDS011;9208;42.688;23.404;2022-09-09T02:10:02;6.37;;;5.77;;
18166;SDS011;9208;42.688;23.404;2022-09-09T02:12:41;6.03;;;5.50;;
18166;SDS011;9208;42.688;23.404;2022-09-09T02:15:17;8.10;;;6.03;;
18166;SDS011;9208;42.688;23.404;2022-09-09T02:17:55;7.07;;;6.37;;
18166;SDS011;9208;42.688;23.404;2022-09-09T02:20:23;6.43;;;5.83;;
18166;SDS011;9208;42.688;23.404;2022-09-09T02:22:51;7.30;;;6.20;;
18166;SDS011;9208;42.688;23.404;2022-09-09T02:25:19;8.53;;;6.20;;
18166;SDS011;9208;42.688;23.404;2022-09-09T02:27:47;7.93;;;6.43;;
18166;SDS011;9208;42.688;23.404;2022-09-09T02:30:15;6.50;;;5.93;;
18166;SDS011;9208;42.688;23.404;2022-09-09T02:32:42;6.43;;;5.93;;
18166;SDS011;9208;42.688;23.404;2022-09-09T02:35:12;6.63;;;6.03;;
18166;SDS011;9208;42.688;23.404;2022-09-09T02:37:41;6.87;;;6.27;;
18166;SDS011;9208;42.688;23.404;2022-09-09T02:40:08;6.77;;;6.20;;
18166;SDS011;9208;42.688;23.404;2022-09-09T02:42:39;7.07;;;6.57;;
18166;SDS011;9208;42.688;23.404;2022-09-09T02:45:06;9.63;;;6.10;;
18166;SDS011;9208;42.688;23.404;2022-09-09T02:47:34;7.10;;;6.43;;
18166;SDS011;9208;42.688;23.404;2022-09-09T02:50:17;7.23;;;6.63;;
18166;SDS011;9208;42.688;23.404;2022-09-09T02:53:12;6.83;;;6.13;;
18166;SDS011;9208;42.688;23.404;2022-09-09T02:55:55;6.53;;;6.03;;
18166;SDS011;9208;42.688;23.404;2022-09-09T02:58:28;6.37;;;5.77;;
18166;SDS011;9208;42.688;23.404;2022-09-09T03:00:54;6.23;;;5.73;;
18166;SDS011;9208;42.688;23.404;2022-09-09T03:03:22;7.23;;;6.60;;
18166;SDS011;9208;42.688;23.404;2022-09-09T03:05:48;6.37;;;5.80;;
18166;SDS011;9208;42.688;23.404;2022-09-09T03:08:14;6.63;;;6.03;;
18166;SDS011;9208;42.688;23.404;2022-09-09T03:10:40;6.43;;;5.87;;
18166;SDS011;9208;42.688;23.404;2022-09-09T03:13:06;6.97;;;6.37;;
18166;SDS011;9208;42.688;23.404;2022-09-09T03:15:33;6.40;;;5.80;;
18166;SDS011;9208;42.688;23.404;2022-09-09T03:17:59;6.13;;;5.53;;
18166;SDS011;9208;42.688;23.404;2022-09-09T03:20:25;6.73;;;6.20;;
18166;SDS011;9208;42.688;23.404;2022-09-09T03:22:52;5.87;;;5.47;;
18166;SDS011;9208;42.688;23.404;2022-09-09T03:25:18;6.43;;;5.83;;
18166;SDS011;9208;42.688;23.404;2022-09-09T03:27:44;6.43;;;5.47;;
18166;SDS011;9208;42.688;23.404;2022-09-09T03:30:10;5.77;;;5.30;;
18166;SDS011;9208;42.688;23.404;2022-09-09T03:32:36;6.30;;;5.73;;
18166;SDS011;9208;42.688;23.404;2022-09-09T03:35:01;6.10;;;5.60;;
18166;SDS011;9208;42.688;23.404;2022-09-09T03:37:27;5.73;;;5.30;;
18166;SDS011;9208;42.688;23.404;2022-09-09T03:39:52;6.33;;;5.83;;
18166;SDS011;9208;42.688;23.404;2022-09-09T03:42:19;6.07;;;5.47;;
18166;SDS011;9208;42.688;23.404;2022-09-09T03:44:46;6.20;;;5.70;;
18166;SDS011;9208;42.688;23.404;2022-09-09T03:47:15;6.67;;;5.37;;
18166;SDS011;9208;42.688;23.404;2022-09-09T03:49:46;6.60;;;6.00;;
18166;SDS011;9208;42.688;23.404;2022-09-09T03:52:13;6.23;;;5.73;;
18166;SDS011;9208;42.688;23.404;2022-09-09T03:54:39;6.23;;;5.73;;
18166;SDS011;9208;42.688;23.404;2022-09-09T03:57:06;6.23;;;5.73;;
18166;SDS011;9208;42.688;23.404;2022-09-09T03:59:32;6.37;;;5.77;;
18166;SDS011;9208;42.688;23.404;2022-09-09T04:01:57;6.70;;;6.10;;
18166;SDS011;9208;42.688;23.404;2022-09-09T04:04:25;6.40;;;5.90;;
18166;SDS011;9208;42.688;23.404;2022-09-09T04:06:53;6.20;;;5.60;;
18166;SDS011;9208;42.688;23.404;2022-09-09T04:09:19;6.80;;;6.20;;
18166;SDS011;9208;42.688;23.404;2022-09-09T04:11:44;6.13;;;5.73;;
18166;SDS011;9208;42.688;23.404;2022-09-09T04:14:11;6.83;;;6.17;;
18166;SDS011;9208;42.688;23.404;2022-09-09T04:16:37;6.63;;;6.13;;
18166;SDS011;9208;42.688;23.404;2022-09-09T04:19:03;6.40;;;5.90;;
18166;SDS011;9208;42.688;23.404;2022-09-09T04:21:31;7.07;;;6.00;;
18166;SDS011;9208;42.688;23.404;2022-09-09T04:23:57;6.47;;;5.93;;
18166;SDS011;9208;42.688;23.404;2022-09-09T04:26:22;7.30;;;6.70;;
18166;SDS011;9208;42.688;23.404;2022-09-09T04:28:48;7.27;;;6.70;;
18166;SDS011;9208;42.688;23.404;2022-09-09T04:31:16;6.70;;;6.10;;
18166;SDS011;9208;42.688;23.404;2022-09-09T04:33:44;6.70;;;5.50;;
18166;SDS011;9208;42.688;23.404;2022-09-09T04:36:11;6.57;;;6.00;;
18166;SDS011;9208;42.688;23.404;2022-09-09T04:38:37;6.63;;;5.93;;
18166;SDS011;9208;42.688;23.404;2022-09-09T04:41:03;6.33;;;5.83;;
18166;SDS011;9208;42.688;23.404;2022-09-09T04:43:28;6.60;;;6.00;;
18166;SDS011;9208;42.688;23.404;2022-09-09T04:45:55;6.37;;;5.73;;
18166;SDS011;9208;42.688;23.404;2022-09-09T04:48:21;6.30;;;5.83;;
18166;SDS011;9208;42.688;23.404;2022-09-09T04:50:53;8.67;;;6.23;;
18166;SDS011;9208;42.688;23.404;2022-09-09T04:53:26;5.90;;;5.47;;
18166;SDS011;9208;42.688;23.404;2022-09-09T04:56:02;7.00;;;6.33;;
18166;SDS011;9208;42.688;23.404;2022-09-09T04:58:33;8.90;;;5.80;;
18166;SDS011;9208;42.688;23.404;2022-09-09T05:03:32;8.47;;;6.07;;
18166;SDS011;9208;42.688;23.404;2022-09-09T05:08:30;6.97;;;6.37;;
18166;SDS011;9208;42.688;23.404;2022-09-09T05:10:55;7.57;;;6.87;;
18166;SDS011;9208;42.688;23.404;2022-09-09T05:13:21;8.47;;;6.70;;
18166;SDS011;9208;42.688;23.404;2022-09-09T05:15:53;7.50;;;6.27;;
18166;SDS011;9208;42.688;23.404;2022-09-09T05:18:19;8.27;;;6.77;;
18166;SDS011;9208;42.688;23.404;2022-09-09T05:20:45;10.80;;;8.87;;
18166;SDS011;9208;42.688;23.404;2022-09-09T05:23:10;8.23;;;7.53;;
18166;SDS011;9208;42.688;23.404;2022-09-09T05:25:37;10.20;;;7.43;;
18166;SDS011;9208;42.688;23.404;2022-09-09T05:28:02;8.00;;;7.30;;
18166;SDS011;9208;42.688;23.404;2022-09-09T05:30:28;8.90;;;6.80;;
18166;SDS011;9208;42.688;23.404;2022-09-09T05:32:55;7.40;;;6.80;;
18166;SDS011;9208;42.688;23.404;2022-09-09T05:35:21;6.97;;;6.10;;
18166;SDS011;9208;42.688;23.404;2022-09-09T05:37:48;9.30;;;7.23;;
18166;SDS011;9208;42.688;23.404;2022-09-09T05:40:14;6.60;;;6.00;;
18166;SDS011;9208;42.688;23.404;2022-09-09T05:42:39;7.90;;;6.20;;
18166;SDS011;9208;42.688;23.404;2022-09-09T05:45:06;9.13;;;5.90;;
18166;SDS011;9208;42.688;23.404;2022-09-09T05:47:33;5.87;;;5.37;;
18166;SDS011;9208;42.688;23.404;2022-09-09T05:50:00;9.63;;;5.70;;
18166;SDS011;9208;42.688;23.404;2022-09-09T05:52:26;7.47;;;6.03;;
18166;SDS011;9208;42.688;23.404;2022-09-09T05:54:52;6.77;;;5.63;;
18166;SDS011;9208;42.688;23.404;2022-09-09T05:57:19;6.37;;;5.77;;
18166;SDS011;9208;42.688;23.404;2022-09-09T05:59:45;9.37;;;6.80;;
18166;SDS011;9208;42.688;23.404;2022-09-09T06:02:10;6.20;;;5.60;;
18166;SDS011;9208;42.688;23.404;2022-09-09T06:04:37;5.87;;;5.30;;
18166;SDS011;9208;42.688;23.404;2022-09-09T06:07:04;5.43;;;5.00;;
18166;SDS011;9208;42.688;23.404;2022-09-09T06:09:30;5.60;;;5.10;;
18166;SDS011;9208;42.688;23.404;2022-09-09T06:11:55;5.63;;;5.13;;
18166;SDS011;9208;42.688;23.404;2022-09-09T06:14:22;5.57;;;5.10;;
18166;SDS011;9208;42.688;23.404;2022-09-09T06:16:48;6.97;;;5.27;;
18166;SDS011;9208;42.688;23.404;2022-09-09T06:19:13;5.60;;;5.00;;
18166;SDS011;9208;42.688;23.404;2022-09-09T06:21:39;10.07;;;9.07;;
18166;SDS011;9208;42.688;23.404;2022-09-09T06:24:05;5.73;;;5.23;;
18166;SDS011;9208;42.688;23.404;2022-09-09T06:26:36;5.13;;;4.60;;
18166;SDS011;9208;42.688;23.404;2022-09-09T06:29:05;5.07;;;4.57;;
18166;SDS011;9208;42.688;23.404;2022-09-09T06:31:32;7.50;;;6.60;;
18166;SDS011;9208;42.688;23.404;2022-09-09T06:33:59;6.20;;;5.33;;
18166;SDS011;9208;42.688;23.404;2022-09-09T06:36:27;5.40;;;4.90;;
18166;SDS011;9208;42.688;23.404;2022-09-09T06:38:55;6.83;;;4.70;;
18166;SDS011;9208;42.688;23.404;2022-09-09T06:41:22;5.50;;;4.70;;
18166;SDS011;9208;42.688;23.404;2022-09-09T06:43:51;4.93;;;4.53;;
18166;SDS011;9208;42.688;23.404;2022-09-09T06:46:23;5.73;;;5.00;;
18166;SDS011;9208;42.688;23.404;2022-09-09T06:48:53;5.20;;;4.70;;
18166;SDS011;9208;42.688;23.404;2022-09-09T06:51:24;5.13;;;4.63;;
18166;SDS011;9208;42.688;23.404;2022-09-09T06:54:00;5.67;;;4.60;;
18166;SDS011;9208;42.688;23.404;2022-09-09T06:56:31;5.10;;;4.53;;
18166;SDS011;9208;42.688;23.404;2022-09-09T06:58:59;7.80;;;5.73;;
18166;SDS011;9208;42.688;23.404;2022-09-09T07:01:28;4.57;;;4.20;;
18166;SDS011;9208;42.688;23.404;2022-09-09T07:03:56;6.73;;;4.93;;
18166;SDS011;9208;42.688;23.404;2022-09-09T07:06:33;5.43;;;4.93;;
18166;SDS011;9208;42.688;23.404;2022-09-09T07:09:01;5.93;;;4.70;;
18166;SDS011;9208;42.688;23.404;2022-09-09T07:11:33;6.70;;;5.07;;
18166;SDS011;9208;42.688;23.404;2022-09-09T07:14:10;6.33;;;4.60;;
18166;SDS011;9208;42.688;23.404;2022-09-09T07:16:39;5.97;;;4.40;;
18166;SDS011;9208;42.688;23.404;2022-09-09T07:19:06;8.17;;;4.70;;
18166;SDS011;9208;42.688;23.404;2022-09-09T07:21:32;6.87;;;5.10;;
18166;SDS011;9208;42.688;23.404;2022-09-09T07:23:58;4.70;;;4.33;;
18166;SDS011;9208;42.688;23.404;2022-09-09T07:26:28;6.00;;;4.97;;
18166;SDS011;9208;42.688;23.404;2022-09-09T07:28:55;6.73;;;4.50;;
18166;SDS011;9208;42.688;23.404;2022-09-09T07:31:26;5.70;;;4.37;;
18166;SDS011;9208;42.688;23.404;2022-09-09T07:33:56;4.87;;;4.27;;
18166;SDS011;9208;42.688;23.404;2022-09-09T07:36:26;7.43;;;4.53;;
18166;SDS011;9208;42.688;23.404;2022-09-09T07:38:58;7.90;;;4.70;;
18166;SDS011;9208;42.688;23.404;2022-09-09T07:44:03;5.80;;;4.30;;
18166;SDS011;9208;42.688;23.404;2022-09-09T07:46:31;4.33;;;3.93;;
18166;SDS011;9208;42.688;23.404;2022-09-09T07:48:57;4.40;;;4.00;;
18166;SDS011;9208;42.688;23.404;2022-09-09T07:51:45;5.03;;;4.53;;
18166;SDS011;9208;42.688;23.404;2022-09-09T07:54:12;6.73;;;4.47;;
18166;SDS011;9208;42.688;23.404;2022-09-09T07:56:40;6.97;;;4.73;;
18166;SDS011;9208;42.688;23.404;2022-09-09T07:59:06;4.50;;;4.10;;
18166;SDS011;9208;42.688;23.404;2022-09-09T08:01:34;4.87;;;4.47;;
18166;SDS011;9208;42.688;23.404;2022-09-09T08:04:04;4.70;;;4.30;;
18166;SDS011;9208;42.688;23.404;2022-09-09T08:06:37;9.13;;;5.00;;
18166;SDS011;9208;42.688;23.404;2022-09-09T08:09:05;8.07;;;4.80;;
18166;SDS011;9208;42.688;23.404;2022-09-09T08:11:32;5.70;;;4.40;;
18166;SDS011;9208;42.688;23.404;2022-09-09T08:13:58;5.67;;;4.50;;
18166;SDS011;9208;42.688;23.404;2022-09-09T08:16:26;5.30;;;4.30;;
18166;SDS011;9208;42.688;23.404;2022-09-09T08:18:53;4.50;;;4.10;;
18166;SDS011;9208;42.688;23.404;2022-09-09T08:21:20;5.33;;;4.47;;
18166;SDS011;9208;42.688;23.404;2022-09-09T08:23:49;5.80;;;4.00;;
18166;SDS011;9208;42.688;23.404;2022-09-09T08:26:21;4.67;;;4.13;;
18166;SDS011;9208;42.688;23.404;2022-09-09T08:28:51;4.73;;;4.23;;
18166;SDS011;9208;42.688;23.404;2022-09-09T08:31:21;5.13;;;4.17;;
18166;SDS011;9208;42.688;23.404;2022-09-09T08:33:49;4.93;;;4.53;;
18166;SDS011;9208;42.688;23.404;2022-09-09T08:36:16;5.43;;;4.40;;
18166;SDS011;9208;42.688;23.404;2022-09-09T08:38:43;5.13;;;4.57;;
18166;SDS011;9208;42.688;23.404;2022-09-09T08:44:10;4.87;;;4.43;;
18166;SDS011;9208;42.688;23.404;2022-09-09T08:46:50;5.03;;;4.37;;
18166;SDS011;9208;42.688;23.404;2022-09-09T08:52:08;4.50;;;4.10;;
18166;SDS011;9208;42.688;23.404;2022-09-09T08:54:41;4.77;;;4.37;;
18166;SDS011;9208;42.688;23.404;2022-09-09T08:57:09;6.63;;;4.53;;
18166;SDS011;9208;42.688;23.404;2022-09-09T08:59:39;5.10;;;4.60;;
18166;SDS011;9208;42.688;23.404;2022-09-09T09:02:24;6.70;;;4.93;;
18166;SDS011;9208;42.688;23.404;2022-09-09T09:04:58;5.10;;;4.63;;
18166;SDS011;9208;42.688;23.404;2022-09-09T09:13:07;5.53;;;4.40;;
18166;SDS011;9208;42.688;23.404;2022-09-09T09:15:38;5.57;;;5.07;;
18166;SDS011;9208;42.688;23.404;2022-09-09T09:18:07;5.37;;;4.87;;
18166;SDS011;9208;42.688;23.404;2022-09-09T09:20:40;9.73;;;4.47;;
18166;SDS011;9208;42.688;23.404;2022-09-09T09:23:26;5.93;;;4.50;;
18166;SDS011;9208;42.688;23.404;2022-09-09T09:26:00;5.43;;;4.30;;
18166;SDS011;9208;42.688;23.404;2022-09-09T09:28:29;4.73;;;4.43;;
18166;SDS011;9208;42.688;23.404;2022-09-09T09:30:59;5.00;;;4.50;;
18166;SDS011;9208;42.688;23.404;2022-09-09T09:33:33;6.63;;;5.03;;
18166;SDS011;9208;42.688;23.404;2022-09-09T09:36:06;6.03;;;4.20;;
18166;SDS011;9208;42.688;23.404;2022-09-09T09:38:33;5.50;;;4.90;;
18166;SDS011;9208;42.688;23.404;2022-09-09T09:41:00;4.93;;;4.53;;
18166;SDS011;9208;42.688;23.404;2022-09-09T09:43:27;4.43;;;4.13;;
18166;SDS011;9208;42.688;23.404;2022-09-09T09:46:05;5.07;;;4.57;;
18166;SDS011;9208;42.688;23.404;2022-09-09T09:48:43;5.63;;;4.47;;
18166;SDS011;9208;42.688;23.404;2022-09-09T09:51:11;5.53;;;4.80;;
18166;SDS011;9208;42.688;23.404;2022-09-09T09:53:40;5.13;;;4.40;;
18166;SDS011;9208;42.688;23.404;2022-09-09T09:56:08;6.40;;;5.17;;
18166;SDS011;9208;42.688;23.404;2022-09-09T09:58:48;7.60;;;4.67;;
18166;SDS011;9208;42.688;23.404;2022-09-09T10:01:26;8.37;;;5.53;;
18166;SDS011;9208;42.688;23.404;2022-09-09T10:06:38;9.43;;;5.03;;
18166;SDS011;9208;42.688;23.404;2022-09-09T10:09:26;5.10;;;4.60;;
18166;SDS011;9208;42.688;23.404;2022-09-09T10:20:32;6.77;;;5.47;;
18166;SDS011;9208;42.688;23.404;2022-09-09T10:36:46;5.73;;;5.07;;
18166;SDS011;9208;42.688;23.404;2022-09-09T10:42:15;6.97;;;6.27;;
18166;SDS011;9208;42.688;23.404;2022-09-09T10:50:36;6.77;;;5.10;;
18166;SDS011;9208;42.688;23.404;2022-09-09T10:53:36;5.10;;;4.57;;
18166;SDS011;9208;42.688;23.404;2022-09-09T10:56:24;5.87;;;5.27;;
18166;SDS011;9208;42.688;23.404;2022-09-09T10:58:54;5.53;;;4.90;;
18166;SDS011;9208;42.688;23.404;2022-09-09T11:01:27;9.50;;;6.03;;
18166;SDS011;9208;42.688;23.404;2022-09-09T11:06:44;6.90;;;5.03;;
18166;SDS011;9208;42.688;23.404;2022-09-09T11:09:17;7.00;;;4.83;;
18166;SDS011;9208;42.688;23.404;2022-09-09T11:11:50;6.83;;;4.87;;
18166;SDS011;9208;42.688;23.404;2022-09-09T11:14:22;6.27;;;4.97;;
18166;SDS011;9208;42.688;23.404;2022-09-09T11:17:03;6.57;;;5.10;;
18166;SDS011;9208;42.688;23.404;2022-09-09T11:20:00;7.33;;;6.03;;
18166;SDS011;9208;42.688;23.404;2022-09-09T11:25:00;8.23;;;5.60;;
18166;SDS011;9208;42.688;23.404;2022-09-09T11:27:42;6.57;;;5.77;;
18166;SDS011;9208;42.688;23.404;2022-09-09T11:30:22;5.83;;;5.33;;
18166;SDS011;9208;42.688;23.404;2022-09-09T11:38:50;9.03;;;6.90;;
18166;SDS011;9208;42.688;23.404;2022-09-09T11:41:17;8.03;;;6.47;;
18166;SDS011;9208;42.688;23.404;2022-09-09T11:43:46;8.57;;;7.63;;
18166;SDS011;9208;42.688;23.404;2022-09-09T11:46:14;10.73;;;7.07;;
18166;SDS011;9208;42.688;23.404;2022-09-09T11:48:43;8.53;;;7.07;;
18166;SDS011;9208;42.688;23.404;2022-09-09T11:51:24;7.80;;;7.10;;
18166;SDS011;9208;42.688;23.404;2022-09-09T11:56:57;6.53;;;5.97;;
18166;SDS011;9208;42.688;23.404;2022-09-09T12:04:27;7.37;;;6.53;;
18166;SDS011;9208;42.688;23.404;2022-09-09T12:17:09;9.33;;;6.80;;
18166;SDS011;9208;42.688;23.404;2022-09-09T12:22:39;10.27;;;7.03;;
18166;SDS011;9208;42.688;23.404;2022-09-09T12:25:19;10.33;;;8.23;;
18166;SDS011;9208;42.688;23.404;2022-09-09T12:33:17;6.87;;;6.17;;
18166;SDS011;9208;42.688;23.404;2022-09-09T12:35:45;7.53;;;6.93;;
18166;SDS011;9208;42.688;23.404;2022-09-09T12:38:22;9.67;;;6.90;;
18166;SDS011;9208;42.688;23.404;2022-09-09T12:41:01;6.47;;;5.87;;
18166;SDS011;9208;42.688;23.404;2022-09-09T12:43:27;7.67;;;6.63;;
18166;SDS011;9208;42.688;23.404;2022-09-09T12:45:55;7.57;;;6.77;;
18166;SDS011;9208;42.688;23.404;2022-09-09T12:48:30;10.50;;;7.10;;
18166;SDS011;9208;42.688;23.404;2022-09-09T12:50:59;8.10;;;6.80;;
18166;SDS011;9208;42.688;23.404;2022-09-09T12:53:30;10.13;;;7.10;;
18166;SDS011;9208;42.688;23.404;2022-09-09T12:55:57;8.17;;;7.10;;
18166;SDS011;9208;42.688;23.404;2022-09-09T12:58:25;9.13;;;6.43;;
18166;SDS011;9208;42.688;23.404;2022-09-09T13:00:54;8.93;;;7.43;;
18166;SDS011;9208;42.688;23.404;2022-09-09T13:03:23;8.00;;;6.90;;
18166;SDS011;9208;42.688;23.404;2022-09-09T13:05:53;10.93;;;7.73;;
18166;SDS011;9208;42.688;23.404;2022-09-09T13:08:23;10.17;;;7.57;;
18166;SDS011;9208;42.688;23.404;2022-09-09T13:10:50;7.40;;;6.70;;
18166;SDS011;9208;42.688;23.404;2022-09-09T13:13:38;10.07;;;7.73;;
18166;SDS011;9208;42.688;23.404;2022-09-09T13:16:05;7.43;;;6.60;;
18166;SDS011;9208;42.688;23.404;2022-09-09T13:18:43;8.80;;;6.60;;
18166;SDS011;9208;42.688;23.404;2022-09-09T13:21:08;10.50;;;7.07;;
18166;SDS011;9208;42.688;23.404;2022-09-09T13:23:35;9.40;;;7.87;;
18166;SDS011;9208;42.688;23.404;2022-09-09T13:26:22;11.47;;;7.80;;
18166;SDS011;9208;42.688;23.404;2022-09-09T13:28:52;9.17;;;6.73;;
18166;SDS011;9208;42.688;23.404;2022-09-09T13:31:33;10.27;;;7.33;;
18166;SDS011;9208;42.688;23.404;2022-09-09T13:34:12;8.77;;;7.00;;
18166;SDS011;9208;42.688;23.404;2022-09-09T13:37:01;8.13;;;6.83;;
18166;SDS011;9208;42.688;23.404;2022-09-09T13:39:30;11.07;;;7.60;;
18166;SDS011;9208;42.688;23.404;2022-09-09T13:41:58;10.27;;;6.50;;
18166;SDS011;9208;42.688;23.404;2022-09-09T13:44:28;9.33;;;7.30;;
18166;SDS011;9208;42.688;23.404;2022-09-09T13:46:59;8.90;;;6.73;;
18166;SDS011;9208;42.688;23.404;2022-09-09T13:49:28;10.27;;;7.50;;
18166;SDS011;9208;42.688;23.404;2022-09-09T13:52:11;10.43;;;7.70;;
18166;SDS011;9208;42.688;23.404;2022-09-09T13:54:36;7.43;;;6.70;;
18166;SDS011;9208;42.688;23.404;2022-09-09T13:57:02;8.17;;;7.17;;
18166;SDS011;9208;42.688;23.404;2022-09-09T13:59:29;11.47;;;7.10;;
18166;SDS011;9208;42.688;23.404;2022-09-09T14:01:55;7.50;;;6.80;;
18166;SDS011;9208;42.688;23.404;2022-09-09T14:04:21;7.83;;;6.73;;
18166;SDS011;9208;42.688;23.404;2022-09-09T14:06:47;9.93;;;7.13;;
18166;SDS011;9208;42.688;23.404;2022-09-09T14:09:14;10.40;;;7.47;;
18166;SDS011;9208;42.688;23.404;2022-09-09T14:11:41;10.07;;;7.03;;
18166;SDS011;9208;42.688;23.404;2022-09-09T14:14:07;9.80;;;7.40;;
18166;SDS011;9208;42.688;23.404;2022-09-09T14:16:33;9.03;;;6.97;;
18166;SDS011;9208;42.688;23.404;2022-09-09T14:18:59;10.60;;;7.73;;
18166;SDS011;9208;42.688;23.404;2022-09-09T14:21:25;7.50;;;6.80;;
18166;SDS011;9208;42.688;23.404;2022-09-09T14:23:51;9.47;;;6.80;;
18166;SDS011;9208;42.688;23.404;2022-09-09T14:26:20;10.10;;;7.27;;
18166;SDS011;9208;42.688;23.404;2022-09-09T14:28:47;11.13;;;7.57;;
18166;SDS011;9208;42.688;23.404;2022-09-09T14:31:13;8.13;;;6.90;;
18166;SDS011;9208;42.688;23.404;2022-09-09T14:33:39;7.40;;;6.70;;
18166;SDS011;9208;42.688;23.404;2022-09-09T14:36:05;9.37;;;6.70;;
18166;SDS011;9208;42.688;23.404;2022-09-09T14:38:33;7.77;;;6.10;;
18166;SDS011;9208;42.688;23.404;2022-09-09T14:41:04;6.80;;;6.10;;
18166;SDS011;9208;42.688;23.404;2022-09-09T14:43:35;9.20;;;7.20;;
18166;SDS011;9208;42.688;23.404;2022-09-09T14:46:14;9.13;;;7.00;;
18166;SDS011;9208;42.688;23.404;2022-09-09T14:48:41;10.67;;;6.87;;
18166;SDS011;9208;42.688;23.404;2022-09-09T14:51:23;10.47;;;7.37;;
18166;SDS011;9208;42.688;23.404;2022-09-09T14:53:56;8.77;;;6.93;;
18166;SDS011;9208;42.688;23.404;2022-09-09T14:56:23;7.47;;;6.40;;
18166;SDS011;9208;42.688;23.404;2022-09-09T14:58:52;9.57;;;6.40;;
18166;SDS011;9208;42.688;23.404;2022-09-09T15:01:20;8.63;;;6.00;;
18166;SDS011;9208;42.688;23.404;2022-09-09T15:03:51;7.17;;;6.47;;
18166;SDS011;9208;42.688;23.404;2022-09-09T15:06:18;7.13;;;6.30;;
18166;SDS011;9208;42.688;23.404;2022-09-09T15:08:45;7.77;;;5.70;;
18166;SDS011;9208;42.688;23.404;2022-09-09T15:11:14;6.53;;;5.90;;
18166;SDS011;9208;42.688;23.404;2022-09-09T15:13:40;8.40;;;5.97;;
18166;SDS011;9208;42.688;23.404;2022-09-09T15:16:08;9.00;;;5.97;;
18166;SDS011;9208;42.688;23.404;2022-09-09T15:18:35;11.93;;;6.40;;
18166;SDS011;9208;42.688;23.404;2022-09-09T15:21:04;10.10;;;6.40;;
18166;SDS011;9208;42.688;23.404;2022-09-09T15:23:34;7.67;;;5.83;;
18166;SDS011;9208;42.688;23.404;2022-09-09T15:26:00;10.60;;;6.17;;
18166;SDS011;9208;42.688;23.404;2022-09-09T15:28:26;8.53;;;5.63;;
18166;SDS011;9208;42.688;23.404;2022-09-09T15:30:52;6.67;;;5.10;;
18166;SDS011;9208;42.688;23.404;2022-09-09T15:33:19;11.57;;;5.87;;
18166;SDS011;9208;42.688;23.404;2022-09-09T15:35:46;6.20;;;5.53;;
18166;SDS011;9208;42.688;23.404;2022-09-09T15:38:11;9.93;;;6.20;;
18166;SDS011;9208;42.688;23.404;2022-09-09T15:40:40;9.13;;;5.80;;
18166;SDS011;9208;42.688;23.404;2022-09-09T15:43:05;9.10;;;6.37;;
18166;SDS011;9208;42.688;23.404;2022-09-09T15:45:32;6.73;;;6.10;;
18166;SDS011;9208;42.688;23.404;2022-09-09T15:48:01;8.23;;;5.97;;
18166;SDS011;9208;42.688;23.404;2022-09-09T15:50:28;10.63;;;5.87;;
18166;SDS011;9208;42.688;23.404;2022-09-09T15:52:56;7.90;;;5.90;;
18166;SDS011;9208;42.688;23.404;2022-09-09T15:55:22;6.60;;;5.40;;
18166;SDS011;9208;42.688;23.404;2022-09-09T15:57:49;11.20;;;5.40;;
18166;SDS011;9208;42.688;23.404;2022-09-09T16:00:17;9.60;;;5.73;;
18166;SDS011;9208;42.688;23.404;2022-09-09T16:02:43;7.10;;;5.57;;
18166;SDS011;9208;42.688;23.404;2022-09-09T16:05:08;5.50;;;4.70;;
18166;SDS011;9208;42.688;23.404;2022-09-09T16:07:34;5.40;;;4.90;;
18166;SDS011;9208;42.688;23.404;2022-09-09T16:10:00;7.83;;;5.10;;
18166;SDS011;9208;42.688;23.404;2022-09-09T16:12:25;6.80;;;5.40;;
18166;SDS011;9208;42.688;23.404;2022-09-09T16:14:51;7.27;;;4.90;;
18166;SDS011;9208;42.688;23.404;2022-09-09T16:17:17;8.53;;;5.33;;
18166;SDS011;9208;42.688;23.404;2022-09-09T16:19:44;5.33;;;4.83;;
18166;SDS011;9208;42.688;23.404;2022-09-09T16:22:10;6.93;;;5.10;;
18166;SDS011;9208;42.688;23.404;2022-09-09T16:24:36;7.73;;;5.43;;
18166;SDS011;9208;42.688;23.404;2022-09-09T16:27:01;8.70;;;5.60;;
18166;SDS011;9208;42.688;23.404;2022-09-09T16:29:27;8.37;;;5.33;;
18166;SDS011;9208;42.688;23.404;2022-09-09T16:31:52;8.40;;;5.77;;
18166;SDS011;9208;42.688;23.404;2022-09-09T16:34:19;9.20;;;5.43;;
18166;SDS011;9208;42.688;23.404;2022-09-09T16:36:45;8.43;;;5.80;;
18166;SDS011;9208;42.688;23.404;2022-09-09T16:39:17;8.53;;;6.30;;
18166;SDS011;9208;42.688;23.404;2022-09-09T16:41:44;10.43;;;5.93;;
18166;SDS011;9208;42.688;23.404;2022-09-09T16:44:12;7.73;;;5.80;;
18166;SDS011;9208;42.688;23.404;2022-09-09T16:46:40;9.83;;;6.13;;
18166;SDS011;9208;42.688;23.404;2022-09-09T16:49:08;8.00;;;5.90;;
18166;SDS011;9208;42.688;23.404;2022-09-09T16:51:42;8.53;;;6.30;;
18166;SDS011;9208;42.688;23.404;2022-09-09T16:54:09;6.50;;;5.80;;
18166;SDS011;9208;42.688;23.404;2022-09-09T16:56:40;8.17;;;5.73;;
18166;SDS011;9208;42.688;23.404;2022-09-09T16:59:08;9.10;;;5.27;;
18166;SDS011;9208;42.688;23.404;2022-09-09T17:01:37;7.40;;;5.40;;
18166;SDS011;9208;42.688;23.404;2022-09-09T17:04:05;7.03;;;6.00;;
18166;SDS011;9208;42.688;23.404;2022-09-09T17:06:33;11.63;;;6.10;;